createdAt,value
2023-03-28T00:02:51.113Z,0.60
2023-03-28T00:06:55.017Z,0.50
2023-03-28T00:11:59.698Z,0.77
2023-03-28T00:16:06.480Z,0.40
2023-03-28T00:20:14.344Z,0.40
2023-03-28T00:24:22.216Z,0.73
2023-03-28T00:28:25.572Z,0.57
2023-03-28T00:32:28.973Z,0.40
2023-03-28T00:36:33.840Z,0.35
2023-03-28T00:40:39.022Z,0.30
2023-03-28T00:44:48.681Z,0.63
2023-03-28T00:48:55.216Z,0.70
2023-03-28T00:53:04.449Z,0.65
2023-03-28T00:57:10.891Z,0.70
2023-03-28T01:01:15.977Z,0.90
2023-03-28T01:05:21.064Z,0.93
2023-03-28T01:09:25.995Z,1.00
2023-03-28T01:13:33.098Z,1.33
2023-03-28T01:17:36.785Z,0.73
2023-03-28T01:22:07.213Z,0.93
2023-03-28T01:26:39.560Z,1.23
2023-03-28T01:31:14.946Z,1.38
2023-03-28T01:35:45.185Z,1.60
2023-03-28T01:40:07.023Z,1.83
2023-03-28T01:44:14.322Z,1.53
2023-03-28T01:48:29.142Z,2.00
2023-03-28T01:52:38.145Z,2.03
2023-03-28T01:56:51.034Z,1.98
2023-03-28T02:01:00.358Z,2.00
2023-03-28T02:05:09.829Z,1.55
2023-03-28T02:09:15.404Z,1.77
2023-03-28T02:13:24.727Z,1.90
2023-03-28T02:17:30.121Z,1.83
2023-03-28T02:21:39.651Z,2.08
2023-03-28T02:25:42.958Z,2.63
2023-03-28T02:29:48.373Z,2.65
2023-03-28T02:33:53.467Z,2.00
2023-03-28T02:38:08.481Z,2.25
2023-03-28T02:42:45.450Z,1.60
2023-03-28T02:46:58.602Z,1.73
2023-03-28T02:51:13.724Z,2.25
2023-03-28T02:55:24.224Z,1.83
2023-03-28T02:59:32.202Z,1.88
2023-03-28T03:03:37.923Z,1.67
2023-03-28T03:07:41.558Z,1.92
2023-03-28T03:11:45.066Z,1.92
2023-03-28T03:15:48.001Z,2.00
2023-03-28T03:19:52.570Z,1.85
2023-03-28T03:23:55.612Z,1.67
2023-03-28T03:27:59.012Z,1.88
2023-03-28T03:32:01.904Z,1.92
2023-03-28T03:36:07.472Z,2.55
2023-03-28T03:40:11.521Z,2.00
2023-03-28T03:44:15.070Z,2.50
2023-03-28T03:48:18.018Z,1.65
2023-03-28T03:52:22.607Z,1.80
2023-03-28T03:56:25.612Z,2.95
2023-03-28T04:00:29.014Z,1.92
2023-03-28T04:04:32.123Z,2.92
2023-03-28T04:08:37.057Z,2.88
2023-03-28T04:12:40.016Z,2.22
2023-03-28T04:16:43.351Z,2.38
2023-03-28T04:20:49.646Z,2.97
2023-03-28T04:24:54.414Z,3.28
2023-03-28T04:29:00.531Z,2.70
2023-03-28T04:33:05.174Z,3.20
2023-03-28T04:37:09.267Z,3.25
2023-03-28T04:41:17.347Z,3.17
2023-03-28T04:45:20.371Z,2.25
2023-03-28T04:49:24.008Z,2.88
2023-03-28T04:53:27.058Z,1.75
2023-03-28T04:57:31.940Z,1.85
2023-03-28T05:01:35.295Z,2.80
2023-03-28T05:05:38.504Z,2.50
2023-03-28T05:09:41.435Z,2.42
2023-03-28T05:13:45.986Z,2.97
2023-03-28T05:17:49.197Z,2.65
2023-03-28T05:21:53.305Z,1.98
2023-03-28T05:25:59.203Z,2.35
2023-03-28T05:30:03.839Z,2.97
2023-03-28T05:34:06.869Z,3.15
2023-03-28T05:38:25.187Z,2.15
2023-03-28T05:42:28.224Z,2.83
2023-03-28T05:46:32.913Z,3.53
2023-03-28T05:50:36.701Z,3.40
2023-03-28T05:54:40.013Z,2.45
2023-03-28T05:58:42.882Z,2.33
2023-03-28T06:02:48.166Z,2.08
2023-03-28T06:06:51.864Z,3.10
2023-03-28T06:11:50.950Z,2.35
2023-03-28T06:15:53.864Z,2.08
2023-03-28T06:19:59.671Z,1.55
2023-03-28T06:24:02.602Z,2.70
2023-03-28T06:28:06.345Z,1.70
2023-03-28T06:32:09.309Z,2.15
2023-03-28T06:36:14.408Z,1.92
2023-03-28T06:40:17.603Z,1.80
2023-03-28T06:44:21.304Z,1.48
2023-03-28T06:48:29.400Z,1.75
2023-03-28T06:52:34.312Z,2.25
2023-03-28T06:56:37.437Z,1.70
2023-03-28T07:00:40.799Z,1.90
2023-03-28T07:04:43.737Z,1.35
2023-03-28T07:08:48.293Z,1.92
2023-03-28T07:12:51.151Z,2.13
2023-03-28T07:16:54.515Z,1.73
2023-03-28T07:21:03.954Z,1.58
2023-03-28T07:25:10.190Z,1.42
2023-03-28T07:29:14.312Z,1.42
2023-03-28T07:33:21.693Z,1.40
2023-03-28T07:37:31.392Z,1.45
2023-03-28T07:41:37.061Z,1.30
2023-03-28T07:45:40.069Z,1.48
2023-03-28T07:49:43.933Z,1.48
2023-03-28T07:53:46.947Z,2.38
2023-03-28T07:57:51.621Z,1.20
2023-03-28T08:01:54.768Z,1.75
2023-03-28T08:06:00.551Z,1.83
2023-03-28T08:10:04.396Z,1.25
2023-03-28T08:14:12.206Z,1.85
2023-03-28T08:18:20.885Z,2.08
2023-03-28T08:22:25.642Z,1.50
2023-03-28T08:26:29.028Z,1.23
2023-03-28T08:30:33.892Z,2.10
2023-03-28T08:34:37.386Z,1.40
2023-03-28T08:38:40.790Z,0.73
2023-03-28T08:43:09.516Z,1.20
2023-03-28T08:47:20.210Z,1.33
2023-03-28T08:51:27.429Z,1.50
2023-03-28T08:55:35.515Z,2.20
2023-03-28T08:59:43.403Z,1.27
2023-03-28T09:03:50.366Z,1.33
2023-03-28T09:08:01.120Z,1.08
2023-03-28T09:12:23.814Z,1.80
2023-03-28T09:16:44.442Z,0.70
2023-03-28T09:20:54.621Z,1.02
2023-03-28T09:25:08.577Z,0.95
2023-03-28T09:29:16.241Z,1.42
2023-03-28T09:33:28.824Z,1.35
2023-03-28T09:37:40.849Z,1.25
2023-03-28T09:41:53.561Z,1.95
2023-03-28T09:46:01.531Z,1.10
2023-03-28T09:50:17.051Z,1.25
2023-03-28T09:54:30.565Z,1.88
2023-03-28T09:58:49.876Z,1.67
2023-03-28T10:02:54.462Z,1.20
2023-03-28T10:07:17.536Z,1.98
2023-03-28T10:11:23.649Z,0.90
2023-03-28T10:15:41.920Z,1.00
2023-03-28T10:19:47.576Z,1.00
2023-03-28T10:24:00.058Z,1.23
2023-03-28T10:28:08.323Z,0.90
2023-03-28T10:32:14.173Z,0.68
2023-03-28T10:36:29.463Z,1.33
2023-03-28T10:40:33.580Z,0.80
2023-03-28T10:44:41.049Z,0.65
2023-03-28T10:48:49.509Z,0.47
2023-03-28T10:53:01.246Z,0.95
2023-03-28T10:57:08.902Z,0.80
2023-03-28T11:01:19.728Z,0.98
2023-03-28T11:05:35.872Z,0.70
2023-03-28T11:09:43.764Z,0.40
2023-03-28T11:13:55.823Z,1.25
2023-03-28T11:18:12.508Z,0.90
2023-03-28T11:22:25.614Z,0.52
2023-03-28T11:26:40.338Z,0.88
2023-03-28T11:30:47.908Z,1.10
2023-03-28T11:35:02.710Z,0.70
2023-03-28T11:39:14.178Z,0.65
2023-03-28T11:43:26.480Z,0.70
2023-03-28T11:47:47.663Z,0.68
2023-03-28T11:52:00.608Z,0.50
2023-03-28T12:00:32.654Z,0.47
2023-03-28T12:04:45.355Z,1.23
2023-03-28T12:08:58.647Z,0.88
2023-03-28T12:13:11.571Z,1.00
2023-03-28T12:21:26.919Z,0.40
2023-03-28T12:25:37.031Z,0.70
2023-03-28T12:29:46.525Z,1.08
2023-03-28T12:33:57.709Z,0.80
2023-03-28T12:38:12.539Z,0.50
2023-03-28T12:42:21.551Z,0.85
2023-03-28T12:46:28.502Z,0.73
2023-03-28T12:50:37.167Z,0.60
2023-03-28T12:54:56.854Z,0.47
2023-03-28T12:59:16.901Z,0.40
2023-03-28T13:03:33.484Z,0.82
2023-03-28T13:07:55.183Z,0.70
2023-03-28T13:12:06.345Z,0.60
2023-03-28T13:16:16.692Z,0.98
2023-03-28T13:20:28.603Z,1.13
2023-03-28T13:24:34.812Z,1.42
2023-03-28T13:28:44.977Z,1.10
2023-03-28T13:32:52.648Z,0.75
2023-03-28T13:36:57.121Z,0.65
2023-03-28T13:41:02.638Z,0.38
2023-03-28T13:45:15.190Z,0.90
2023-03-28T13:49:22.234Z,0.60
2023-03-28T13:53:29.987Z,0.60
2023-03-28T13:57:37.994Z,0.70
2023-03-28T14:01:48.388Z,0.70
2023-03-28T14:05:52.998Z,0.70
2023-03-28T14:09:57.998Z,0.70
2023-03-28T14:14:08.110Z,0.75
2023-03-28T14:18:17.979Z,1.00
2023-03-28T14:22:27.880Z,0.43
2023-03-28T14:26:35.403Z,0.93
2023-03-28T14:30:43.078Z,0.70
2023-03-28T14:34:48.549Z,0.82
2023-03-28T14:38:53.191Z,0.90
2023-03-28T14:42:57.807Z,0.65
2023-03-28T14:47:01.660Z,0.80
2023-03-28T14:51:06.490Z,1.00
2023-03-28T14:55:18.338Z,0.52
2023-03-28T14:59:22.605Z,0.52
2023-03-28T15:03:32.707Z,0.73
2023-03-28T15:07:37.988Z,0.95
2023-03-28T15:11:44.954Z,0.82
2023-03-28T15:15:49.973Z,1.20
2023-03-28T15:19:59.366Z,0.73
2023-03-28T15:24:04.321Z,0.65
2023-03-28T15:28:11.189Z,0.73
2023-03-28T15:32:19.574Z,0.80
2023-03-28T15:36:25.771Z,0.63
2023-03-28T15:40:32.580Z,0.95
2023-03-28T15:44:38.866Z,1.20
2023-03-28T15:48:43.385Z,0.80
2023-03-28T15:52:47.568Z,0.68
2023-03-28T15:56:51.160Z,0.93
2023-03-28T16:05:07.841Z,0.70
2023-03-28T16:09:18.497Z,0.52
2023-03-28T16:13:21.719Z,0.73
2023-03-28T16:17:26.648Z,0.40
2023-03-28T16:21:31.057Z,1.05
2023-03-28T16:25:34.456Z,0.70
2023-03-28T16:29:37.463Z,0.95
2023-03-28T16:33:40.559Z,0.70
2023-03-28T16:37:45.177Z,0.95
2023-03-28T16:41:48.374Z,0.77
2023-03-28T16:45:51.611Z,0.70
2023-03-28T16:49:54.756Z,0.50
2023-03-28T16:54:01.060Z,1.15
2023-03-28T16:58:04.722Z,1.05
2023-03-28T17:02:09.312Z,0.98
2023-03-28T17:06:12.857Z,0.75
2023-03-28T17:10:18.159Z,0.73
2023-03-28T17:14:21.470Z,1.02
2023-03-28T17:18:25.841Z,0.98
2023-03-28T17:22:28.948Z,1.38
2023-03-28T17:26:33.659Z,0.77
2023-03-28T17:30:39.061Z,0.80
2023-03-28T17:34:42.392Z,0.75
2023-03-28T17:38:45.686Z,0.55
2023-03-28T17:42:50.367Z,0.60
2023-03-28T17:46:54.817Z,0.52
2023-03-28T17:50:58.005Z,0.95
2023-03-28T17:55:01.406Z,1.08
2023-03-28T17:59:06.487Z,1.23
2023-03-28T18:03:09.583Z,0.55
2023-03-28T18:07:15.823Z,1.20
2023-03-28T18:11:20.446Z,1.15
2023-03-28T18:15:25.163Z,1.13
2023-03-28T18:19:29.051Z,1.65
2023-03-28T18:23:32.598Z,1.05
2023-03-28T18:27:35.566Z,0.52
2023-03-28T18:31:42.163Z,0.80
2023-03-28T18:35:46.940Z,1.90
2023-03-28T18:39:51.264Z,0.85
2023-03-28T18:43:54.599Z,1.20
2023-03-28T18:48:00.272Z,1.00
2023-03-28T18:52:06.135Z,0.70
2023-03-28T18:56:10.433Z,0.68
2023-03-28T19:00:18.293Z,1.00
2023-03-28T19:04:25.850Z,0.77
2023-03-28T19:08:29.931Z,0.80
2023-03-28T19:12:33.386Z,0.80
2023-03-28T19:16:37.440Z,1.40
2023-03-28T19:20:42.113Z,0.95
2023-03-28T19:24:45.203Z,1.48
2023-03-28T19:28:49.382Z,0.60
2023-03-28T19:32:52.554Z,0.85
2023-03-28T19:36:57.431Z,1.20
2023-03-28T19:41:02.288Z,0.82
2023-03-28T19:45:06.604Z,1.67
2023-03-28T19:49:10.379Z,1.70
2023-03-28T19:53:15.645Z,1.05
2023-03-28T19:57:18.772Z,1.30
2023-03-28T20:01:22.868Z,1.63
2023-03-28T20:05:26.340Z,1.73
2023-03-28T20:09:33.082Z,1.73
2023-03-28T20:13:38.513Z,1.38
2023-03-28T20:17:42.061Z,1.52
2023-03-28T20:21:46.936Z,1.20
2023-03-28T20:25:53.683Z,1.50
2023-03-28T20:29:56.557Z,1.55
2023-03-28T20:34:00.512Z,1.52
2023-03-28T20:38:04.436Z,0.88
2023-03-28T20:42:09.191Z,1.90
2023-03-28T20:46:13.228Z,1.20
2023-03-28T20:50:16.552Z,1.80
2023-03-28T20:54:21.862Z,1.30
2023-03-28T20:58:27.376Z,1.50
2023-03-28T21:02:33.941Z,2.13
2023-03-28T21:06:38.404Z,1.25
2023-03-28T21:10:41.547Z,2.05
2023-03-28T21:14:46.608Z,1.80
2023-03-28T21:18:50.285Z,1.63
2023-03-28T21:22:54.199Z,2.38
2023-03-28T21:26:57.802Z,1.40
2023-03-28T21:31:04.211Z,1.60
2023-03-28T21:35:09.154Z,2.03
2023-03-28T21:39:12.467Z,1.77
2023-03-28T21:43:15.988Z,1.80
2023-03-28T21:47:21.153Z,1.95
2023-03-28T21:51:24.089Z,1.67
2023-03-28T21:55:28.318Z,1.10
2023-03-28T21:59:31.818Z,1.27
2023-03-28T22:03:38.889Z,1.90
2023-03-28T22:07:42.300Z,1.38
2023-03-28T22:11:46.383Z,1.85
2023-03-28T22:15:51.731Z,1.92
2023-03-28T22:19:57.217Z,1.17
2023-03-28T22:24:03.122Z,1.58
2023-03-28T22:28:08.522Z,1.85
2023-03-28T22:32:11.960Z,1.55
2023-03-28T22:36:16.910Z,2.10
2023-03-28T22:40:20.792Z,1.60
2023-03-28T22:44:27.122Z,1.67
2023-03-28T22:48:32.184Z,1.25
2023-03-28T22:52:38.111Z,1.33
2023-03-28T22:56:42.343Z,1.73
2023-03-28T23:00:46.882Z,1.50
2023-03-28T23:04:51.291Z,1.48
2023-03-28T23:08:55.846Z,1.30
2023-03-28T23:13:00.150Z,1.40
2023-03-28T23:17:04.909Z,1.38
2023-03-28T23:21:09.053Z,1.08
2023-03-28T23:25:16.106Z,2.22
2023-03-28T23:29:19.839Z,2.40
2023-03-28T23:33:22.880Z,1.65
2023-03-28T23:37:29.732Z,1.67
2023-03-28T23:41:34.796Z,1.80
2023-03-28T23:45:39.098Z,1.70
2023-03-28T23:49:42.604Z,1.30
2023-03-28T23:53:46.010Z,1.70
2023-03-28T23:57:54.282Z,1.55
